Time;durP1;ratioP1;P1;durP2;ratioP2;P2;SDS_P1;SDS_P2;PMS_P1;PMS_P2;Temp;Humidity;BMP_temperature;BMP_pressure;BME280_temperature;BME280_humidity;BME280_pressure;Samples;Min_cycle;Max_cycle;Signal;HPM_P1;HPM_P2
2023/06/21 00:02:03;;;;;;;;;47.00;39.75;;;;;25.27;40.70;99340.75;4994948;28;8858;-87
2023/06/21 00:04:33;;;;;;;;;45.50;39.00;;;;;25.37;40.51;99348.06;4941081;28;8913;-85
2023/06/21 00:07:04;;;;;;;;;44.50;37.75;;;;;25.46;40.32;99347.25;4978722;28;9052;-87
2023/06/21 00:09:35;;;;;;;;;45.75;38.75;;;;;25.50;39.90;99335.25;4990200;28;8921;-87
2023/06/21 00:12:06;;;;;;;;;46.00;39.00;;;;;25.53;39.91;99337.69;4984884;28;8855;-86
2023/06/21 00:14:35;;;;;;;;;47.00;39.50;;;;;25.55;39.38;99335.69;4992063;28;9011;-89
2023/06/21 00:17:05;;;;;;;;;46.75;39.50;;;;;25.63;39.50;99326.94;4960104;28;8852;-85
2023/06/21 00:19:35;;;;;;;;;49.00;41.00;;;;;25.57;40.08;99327.47;4978482;28;8860;-85
2023/06/21 00:22:05;;;;;;;;;46.50;40.00;;;;;25.68;39.80;99330.06;5009000;28;8838;-87
2023/06/21 00:24:36;;;;;;;;;45.25;38.50;;;;;25.73;40.22;99327.84;5038320;28;8860;-87
2023/06/21 00:27:06;;;;;;;;;45.75;39.00;;;;;25.75;40.04;99315.09;5020626;28;9510;-87
2023/06/21 00:29:35;;;;;;;;;41.50;36.25;;;;;25.80;39.44;99312.84;5035612;28;8971;-88
2023/06/21 00:32:06;;;;;;;;;52.50;42.25;;;;;25.76;40.67;99321.34;5038596;28;8963;-89
2023/06/21 00:34:36;;;;;;;;;44.75;38.00;;;;;25.64;39.46;99315.19;5032810;28;8863;-86
2023/06/21 00:37:07;;;;;;;;;44.75;37.25;;;;;25.58;39.46;99319.25;4985285;28;8913;-89
2023/06/21 00:39:43;;;;;;;;;50.00;40.75;;;;;25.45;39.57;99318.63;5034866;28;8894;-87
2023/06/21 00:42:13;;;;;;;;;48.50;39.00;;;;;25.39;39.70;99320.03;5004099;28;8849;-88
2023/06/21 00:44:42;;;;;;;;;47.25;40.00;;;;;25.11;40.87;99321.50;5028744;28;8866;-89
2023/06/21 00:47:11;;;;;;;;;49.50;41.50;;;;;25.16;40.17;99330.06;4991780;28;8850;-87
2023/06/21 00:49:41;;;;;;;;;51.75;42.50;;;;;25.31;41.42;99323.34;4999309;28;8925;-90
2023/06/21 00:52:14;;;;;;;;;51.50;42.75;;;;;25.39;41.69;99319.19;4975358;28;8964;-87
2023/06/21 00:54:48;;;;;;;;;48.50;40.50;;;;;25.48;42.30;99318.38;4991136;28;8877;-88
2023/06/21 00:57:17;;;;;;;;;50.00;42.00;;;;;25.52;42.48;99320.66;4975101;28;9006;-87
2023/06/21 00:59:46;;;;;;;;;52.00;44.00;;;;;25.53;43.00;99310.75;4991472;28;8894;-87
2023/06/21 01:02:26;;;;;;;;;51.25;43.50;;;;;25.52;43.01;99322.50;4962989;28;8896;-88
2023/06/21 01:04:59;;;;;;;;;47.50;40.00;;;;;25.46;40.88;99318.50;4947838;28;8883;-90
2023/06/21 01:07:37;;;;;;;;;46.25;39.75;;;;;25.40;41.73;99324.44;4963092;28;9794;-86
2023/06/21 01:10:19;;;;;;;;;50.00;40.25;;;;;25.35;42.69;99325.81;4959658;28;8916;-86
2023/06/21 01:13:05;;;;;;;;;48.25;41.00;;;;;25.34;42.14;99329.47;4958318;28;8972;-86
2023/06/21 01:15:42;;;;;;;;;50.33;42.33;;;;;25.26;42.60;99330.94;4973177;28;8988;-86
2023/06/21 01:18:16;;;;;;;;;45.50;39.00;;;;;25.19;43.59;99334.31;4958905;28;8862;-91
2023/06/21 01:20:53;;;;;;;;;52.00;43.25;;;;;25.27;43.55;99329.13;4958277;28;8908;-88
2023/06/21 01:23:40;;;;;;;;;50.75;43.25;;;;;25.33;42.29;99331.31;4955401;28;9000;-89
2023/06/21 01:26:26;;;;;;;;;50.00;41.50;;;;;25.38;43.13;99320.16;4974745;28;8885;-88
2023/06/21 01:29:16;;;;;;;;;50.75;43.00;;;;;25.42;43.07;99327.00;4993370;28;8858;-90
2023/06/21 01:31:50;;;;;;;;;48.75;41.25;;;;;25.21;43.52;99333.22;5009353;28;8864;-88
2023/06/21 01:34:20;;;;;;;;;51.25;43.25;;;;;25.21;43.95;99332.34;5036807;28;8950;-89
2023/06/21 01:36:49;;;;;;;;;54.00;44.25;;;;;25.19;43.90;99335.19;5019953;28;8947;-89
2023/06/21 01:39:19;;;;;;;;;47.25;40.75;;;;;25.14;43.34;99334.72;5036849;28;8976;-89
2023/06/21 01:41:48;;;;;;;;;47.75;41.00;;;;;25.11;43.74;99333.16;5000991;28;8896;-89
2023/06/21 01:44:21;;;;;;;;;50.25;41.50;;;;;25.06;43.28;99339.91;4997931;28;8895;-92
2023/06/21 01:46:53;;;;;;;;;48.00;40.50;;;;;25.02;44.03;99342.00;4994398;28;8889;-88
2023/06/21 01:49:25;;;;;;;;;53.00;44.00;;;;;24.97;44.13;99336.16;5014462;28;8860;-87
2023/06/21 01:51:55;;;;;;;;;53.00;44.25;;;;;24.93;43.89;99340.94;5023603;28;8879;-89
2023/06/21 01:54:26;;;;;;;;;51.75;44.00;;;;;24.95;44.24;99331.91;5010858;28;8891;-88
2023/06/21 01:57:02;;;;;;;;;52.75;43.25;;;;;24.99;44.59;99336.03;4976055;28;8943;-88
2023/06/21 01:59:33;;;;;;;;;53.25;44.50;;;;;24.94;44.55;99325.63;4969126;28;8920;-91
2023/06/21 02:02:05;;;;;;;;;49.25;41.50;;;;;24.88;44.48;99340.44;4962225;28;8864;-88
2023/06/21 02:04:39;;;;;;;;;49.25;42.25;;;;;24.85;44.02;99343.41;4993387;28;8893;-88
2023/06/21 02:07:14;;;;;;;;;54.50;44.25;;;;;24.83;43.50;99344.50;4988966;28;8995;-88
2023/06/21 02:09:44;;;;;;;;;49.75;42.75;;;;;24.79;43.28;99348.44;4992875;28;8884;-91
2023/06/21 02:12:13;;;;;;;;;50.75;43.25;;;;;24.76;43.41;99338.81;4969730;28;8869;-90
2023/06/21 02:14:44;;;;;;;;;49.50;42.50;;;;;24.76;43.63;99343.34;4938720;28;8869;-90
2023/06/21 02:17:17;;;;;;;;;52.25;43.75;;;;;24.76;43.60;99337.97;4919777;28;8979;-90
2023/06/21 02:19:47;;;;;;;;;52.25;42.75;;;;;24.73;43.09;99331.84;4951172;28;8868;-90
2023/06/21 02:22:18;;;;;;;;;51.50;43.75;;;;;24.67;42.51;99336.84;4967419;28;8913;-89
2023/06/21 02:24:48;;;;;;;;;49.75;41.00;;;;;24.65;42.25;99339.66;4977612;28;8858;-90
2023/06/21 02:27:17;;;;;;;;;50.00;40.75;;;;;24.63;42.21;99332.72;5010345;28;8842;-89
2023/06/21 02:29:48;;;;;;;;;49.00;41.25;;;;;24.64;42.31;99329.03;4993860;28;8862;-89
2023/06/21 02:32:22;;;;;;;;;49.00;41.50;;;;;24.62;42.70;99334.56;4993804;28;8835;-91
2023/06/21 02:34:51;;;;;;;;;49.75;40.75;;;;;24.64;42.50;99339.78;5026753;28;8851;-89
2023/06/21 02:37:20;;;;;;;;;51.00;42.75;;;;;24.61;42.53;99340.06;5010160;28;8881;-89
2023/06/21 02:39:50;;;;;;;;;52.50;44.25;;;;;24.60;42.48;99335.66;4993899;28;8874;-89
2023/06/21 02:42:19;;;;;;;;;52.75;42.25;;;;;24.59;42.61;99340.19;5011298;28;8858;-88
2023/06/21 02:44:50;;;;;;;;;55.50;45.75;;;;;24.57;42.51;99344.84;5008980;28;8854;-91
2023/06/21 02:47:21;;;;;;;;;51.50;43.75;;;;;24.53;43.27;99346.06;5011260;28;8834;-94
2023/06/21 02:49:55;;;;;;;;;51.50;43.00;;;;;24.54;42.72;99355.84;4994829;28;8871;-91
2023/06/21 02:52:25;;;;;;;;;53.00;44.00;;;;;24.56;42.65;99353.88;5013190;28;8843;-90
2023/06/21 02:54:56;;;;;;;;;51.50;43.50;;;;;24.49;42.80;99358.03;5013819;28;8859;-91
2023/06/21 02:57:27;;;;;;;;;52.75;44.50;;;;;24.52;42.46;99355.09;4979687;28;8901;-90
2023/06/21 03:00:13;;;;;;;;;47.25;40.25;;;;;24.53;42.57;99357.66;5029274;28;8874;-89
2023/06/21 03:06:06;;;;;;;;;52.75;44.00;;;;;24.67;42.21;99361.91;4938732;28;8876;-90
2023/06/21 03:08:38;;;;;;;;;45.00;38.50;;;;;24.67;41.15;99364.59;4942748;28;8873;-89
2023/06/21 03:11:12;;;;;;;;;46.25;40.25;;;;;24.71;41.39;99368.72;4943815;28;8841;-88
2023/06/21 03:13:43;;;;;;;;;52.00;42.75;;;;;24.75;41.58;99366.66;4935155;28;8869;-88
2023/06/21 03:16:35;;;;;;;;;48.75;41.00;;;;;24.80;41.02;99375.19;4960869;28;8878;-89
2023/06/21 03:19:05;;;;;;;;;50.25;41.75;;;;;24.80;41.43;99374.38;4943058;28;8873;-89
2023/06/21 03:21:36;;;;;;;;;46.75;39.75;;;;;24.82;39.94;99375.94;4910342;29;8960;-89
2023/06/21 03:24:07;;;;;;;;;41.75;36.50;;;;;24.87;39.57;99378.25;4905596;29;8877;-86
2023/06/21 03:26:58;;;;;;;;;47.50;39.50;;;;;24.94;41.22;99379.41;4906617;29;8941;-88
2023/06/21 03:29:49;;;;;;;;;49.50;40.75;;;;;24.99;41.36;99379.03;4814437;29;9782;-88
2023/06/21 03:32:22;;;;;;;;;52.00;44.00;;;;;25.08;41.99;99373.75;4811267;29;8877;-86
2023/06/21 03:34:53;;;;;;;;;54.75;44.00;;;;;25.10;42.74;99379.00;4813464;29;9000;-89
2023/06/21 03:37:24;;;;;;;;;35.25;29.50;;;;;25.12;42.54;99383.25;4842201;29;8866;-88
2023/06/21 03:39:55;;;;;;;;;53.00;43.25;;;;;25.15;42.32;99379.44;4886246;29;8857;-88
2023/06/21 03:42:26;;;;;;;;;44.75;38.25;;;;;25.16;40.85;99380.31;4878901;29;8888;-84
2023/06/21 03:44:57;;;;;;;;;46.00;39.00;;;;;25.21;40.51;99380.75;4878265;29;8877;-90
2023/06/21 03:47:29;;;;;;;;;46.25;39.25;;;;;25.24;40.25;99383.19;4890529;29;8856;-85
2023/06/21 03:50:00;;;;;;;;;49.00;40.50;;;;;25.29;40.59;99391.72;4890653;29;8867;-88
2023/06/21 03:52:30;;;;;;;;;61.25;49.25;;;;;25.38;41.64;99384.72;4859748;29;9596;-85
2023/06/21 03:55:00;;;;;;;;;52.50;44.00;;;;;25.41;40.87;99390.69;4916378;28;8861;-89
2023/06/21 03:57:30;;;;;;;;;53.75;44.50;;;;;25.50;41.15;99387.22;4946466;28;8941;-85
2023/06/21 03:59:59;;;;;;;;;52.00;42.75;;;;;25.60;41.77;99386.44;4948346;28;8865;-87
2023/06/21 04:02:35;;;;;;;;;50.50;41.50;;;;;25.60;41.01;99387.28;4960695;28;8860;-87
2023/06/21 04:05:05;;;;;;;;;43.00;36.50;;;;;25.57;40.27;99392.06;4961033;28;8895;-85
2023/06/21 04:07:34;;;;;;;;;40.00;34.25;;;;;25.37;40.86;99383.03;4944847;28;8840;-86
2023/06/21 04:10:05;;;;;;;;;48.25;39.25;;;;;25.46;40.82;99379.56;4959082;28;8860;-86
2023/06/21 04:12:35;;;;;;;;;42.00;36.75;;;;;25.54;40.97;99385.13;4959365;28;8971;-87
2023/06/21 04:15:06;;;;;;;;;49.25;40.00;;;;;25.53;40.75;99380.75;4911486;28;8899;-86
2023/06/21 04:17:40;;;;;;;;;45.50;38.25;;;;;25.65;40.55;99379.66;4927992;28;8856;-88
2023/06/21 04:20:13;;;;;;;;;45.25;38.00;;;;;25.78;40.60;99379.44;4975477;28;8892;-87
2023/06/21 04:22:45;;;;;;;;;46.25;37.50;;;;;25.79;40.13;99382.97;4917719;29;9630;-86
2023/06/21 04:25:14;;;;;;;;;46.00;39.75;;;;;25.86;40.36;99376.06;4934437;29;8885;-87
2023/06/21 04:27:45;;;;;;;;;61.00;50.00;;;;;25.99;40.23;99383.97;4931989;29;8865;-89
2023/06/21 04:30:16;;;;;;;;;48.25;40.50;;;;;26.02;40.28;99378.28;4939025;28;8980;-84
2023/06/21 04:32:47;;;;;;;;;47.00;39.25;;;;;26.18;39.96;99380.50;4924725;28;8861;-85
2023/06/21 04:35:18;;;;;;;;;45.00;38.75;;;;;26.20;39.99;99389.28;4955162;28;8873;-85
2023/06/21 04:37:49;;;;;;;;;45.75;38.25;;;;;26.35;40.15;99390.59;4956257;28;8857;-84
2023/06/21 04:40:20;;;;;;;;;47.25;39.00;;;;;26.47;39.92;99386.84;4977723;28;8919;-84
2023/06/21 04:42:54;;;;;;;;;44.00;38.00;;;;;26.63;39.85;99385.44;4917568;29;8868;-85
2023/06/21 04:45:26;;;;;;;;;45.25;38.50;;;;;26.75;39.56;99389.72;4910296;29;8887;-86
2023/06/21 04:47:57;;;;;;;;;49.50;41.75;;;;;26.83;39.42;99386.31;4928450;29;8875;-86
2023/06/21 04:50:28;;;;;;;;;54.25;45.00;;;;;26.89;38.60;99379.50;4929144;29;8872;-86
2023/06/21 04:52:59;;;;;;;;;47.25;40.25;;;;;26.98;38.31;99390.28;4900847;28;8875;-84
2023/06/21 04:55:29;;;;;;;;;45.75;38.75;;;;;27.15;37.76;99391.44;4966330;28;8898;-87
2023/06/21 04:57:58;;;;;;;;;51.75;42.25;;;;;27.31;37.25;99390.00;4965398;28;8870;-84
2023/06/21 05:00:29;;;;;;;;;54.50;45.00;;;;;27.52;37.24;99382.59;4902644;28;8886;-87
2023/06/21 05:03:00;;;;;;;;;48.00;40.00;;;;;27.60;37.11;99384.59;4949737;28;8855;-83
2023/06/21 05:05:29;;;;;;;;;47.75;38.75;;;;;27.75;37.24;99393.91;4901956;28;8873;-85
2023/06/21 05:08:04;;;;;;;;;46.50;39.75;;;;;27.80;37.29;99391.63;4926400;29;8861;-88
2023/06/21 05:10:33;;;;;;;;;44.75;38.00;;;;;27.96;36.70;99387.44;4880122;29;8897;-84
2023/06/21 05:13:03;;;;;;;;;41.75;36.25;;;;;28.05;36.46;99386.56;4912669;29;8873;-85
2023/06/21 05:15:32;;;;;;;;;48.00;40.00;;;;;28.00;36.20;99389.69;4914080;29;9598;-86
2023/06/21 05:18:05;;;;;;;;;47.25;40.75;;;;;28.14;36.17;99388.41;4945531;29;8901;-84
2023/06/21 05:20:34;;;;;;;;;44.50;38.25;;;;;28.26;36.21;99388.22;4930265;29;8935;-84
2023/06/21 05:23:03;;;;;;;;;50.50;42.50;;;;;28.40;36.11;99391.25;4914254;29;8907;-87
2023/06/21 05:25:32;;;;;;;;;52.75;43.50;;;;;28.55;35.85;99386.16;4930430;29;8877;-86
2023/06/21 05:28:01;;;;;;;;;46.50;39.75;;;;;28.63;35.83;99395.38;4914768;29;8891;-82
2023/06/21 05:30:30;;;;;;;;;46.75;39.00;;;;;28.64;36.01;99391.69;4975123;28;8857;-83
2023/06/21 05:33:00;;;;;;;;;44.25;35.50;;;;;28.79;36.01;99400.97;4981381;28;8879;-84
2023/06/21 05:35:30;;;;;;;;;43.50;37.75;;;;;28.96;35.30;99394.72;4972885;28;8877;-85
2023/06/21 05:37:59;;;;;;;;;46.75;38.50;;;;;29.09;34.85;99405.16;4936015;29;8965;-84
2023/06/21 05:40:28;;;;;;;;;54.25;45.25;;;;;29.19;34.22;99413.22;4974195;28;8984;-83
2023/06/21 05:43:01;;;;;;;;;45.50;39.00;;;;;29.28;34.42;99414.16;4939726;28;8851;-84
2023/06/21 05:45:35;;;;;;;;;44.00;36.75;;;;;29.40;33.88;99414.75;4985064;28;8942;-84
2023/06/21 05:48:09;;;;;;;;;39.75;35.25;;;;;29.51;33.45;99412.63;4948158;28;8881;-85
2023/06/21 05:50:41;;;;;;;;;44.00;37.00;;;;;29.62;33.06;99419.66;4986816;28;9628;-85
2023/06/21 05:53:12;;;;;;;;;48.00;39.25;;;;;29.76;33.37;99418.22;4971910;28;8882;-85
2023/06/21 05:55:42;;;;;;;;;48.50;40.25;;;;;29.77;33.37;99422.66;4955705;28;8874;-85
2023/06/21 05:58:14;;;;;;;;;57.50;47.25;;;;;29.85;32.97;99429.97;4956869;28;8852;-85
2023/06/21 06:01:14;;;;;;;;;53.25;44.00;;;;;30.12;32.47;99435.22;4973658;28;9149;-88
2023/06/21 06:03:54;;;;;;;;;45.00;37.75;;;;;30.29;32.36;99438.88;4987839;28;9663;-83
2023/06/21 06:06:24;;;;;;;;;43.00;37.00;;;;;30.41;32.11;99438.56;4971347;28;8916;-83
2023/06/21 06:08:53;;;;;;;;;40.25;35.00;;;;;30.55;31.96;99435.25;4971258;28;8873;-86
2023/06/21 06:11:22;;;;;;;;;39.25;33.00;;;;;30.62;31.88;99435.44;4971207;28;8873;-85
2023/06/21 06:13:52;;;;;;;;;41.75;35.25;;;;;30.66;31.85;99440.38;4987079;28;8874;-86
2023/06/21 06:16:21;;;;;;;;;39.50;35.00;;;;;30.64;31.48;99433.41;4971954;28;8890;-84
2023/06/21 06:18:50;;;;;;;;;38.25;34.25;;;;;30.76;31.15;99444.84;4986857;28;8853;-83
2023/06/21 06:21:21;;;;;;;;;39.50;34.50;;;;;30.82;31.59;99441.44;4966923;28;8865;-83
2023/06/21 06:23:52;;;;;;;;;34.25;32.00;;;;;30.79;30.39;99439.09;5003589;28;8869;-84
2023/06/21 06:26:23;;;;;;;;;42.00;36.00;;;;;30.78;31.22;99443.63;4987620;28;8865;-84
2023/06/21 06:28:54;;;;;;;;;43.25;35.75;;;;;30.79;30.52;99439.94;4987822;28;8883;-82
2023/06/21 06:31:43;;;;;;;;;43.50;37.25;;;;;30.89;31.32;99445.19;4958468;28;8881;-82
2023/06/21 06:34:12;;;;;;;;;46.00;39.00;;;;;30.95;31.98;99436.38;4955089;28;9639;-86
2023/06/21 06:36:41;;;;;;;;;47.00;38.75;;;;;30.80;33.02;99443.47;4932431;29;8967;-84
2023/06/21 06:39:13;;;;;;;;;46.75;39.25;;;;;30.76;33.35;99440.25;4947638;28;8865;-84
2023/06/21 06:41:41;;;;;;;;;48.00;41.00;;;;;30.90;33.34;99444.19;4950638;28;8873;-84
2023/06/21 06:44:17;;;;;;;;;46.50;38.25;;;;;30.83;32.69;99451.31;4952231;28;8868;-84
2023/06/21 06:46:45;;;;;;;;;48.00;39.25;;;;;30.11;33.67;99448.94;4970940;28;8952;-83
2023/06/21 06:49:14;;;;;;;;;46.00;38.25;;;;;30.26;34.08;99447.34;4955017;28;8875;-84
2023/06/21 06:51:45;;;;;;;;;47.75;39.50;;;;;30.26;33.07;99455.47;4970743;28;8883;-84
2023/06/21 06:54:16;;;;;;;;;47.25;39.00;;;;;30.45;32.77;99448.09;4939476;28;8847;-85
2023/06/21 06:56:45;;;;;;;;;48.25;40.50;;;;;30.64;33.07;99442.41;4970110;28;8925;-84
2023/06/21 06:59:14;;;;;;;;;47.50;40.25;;;;;30.70;32.53;99455.31;4953883;28;8871;-85
2023/06/21 07:01:43;;;;;;;;;47.00;39.50;;;;;30.88;32.35;99451.63;4958728;28;9025;-87
2023/06/21 07:04:12;;;;;;;;;42.75;36.75;;;;;31.02;31.90;99442.84;4992863;28;8885;-83
2023/06/21 07:06:41;;;;;;;;;45.75;38.25;;;;;31.13;31.56;99455.25;4994098;28;8862;-84
2023/06/21 07:09:10;;;;;;;;;43.25;37.00;;;;;31.28;31.67;99442.72;5010790;28;8842;-84
2023/06/21 07:11:41;;;;;;;;;42.25;35.75;;;;;31.37;30.97;99450.88;5012895;28;8851;-85
2023/06/21 07:14:11;;;;;;;;;48.25;40.50;;;;;31.32;31.38;99447.84;4997573;28;8877;-84
2023/06/21 07:16:42;;;;;;;;;44.25;37.50;;;;;31.22;32.00;99447.97;5018056;28;8877;-82
2023/06/21 07:19:15;;;;;;;;;43.00;37.25;;;;;31.23;32.54;99449.69;5038723;28;8903;-87
2023/06/21 07:21:46;;;;;;;;;46.50;39.50;;;;;30.18;34.14;99452.75;4995503;28;8976;-84
2023/06/21 07:24:15;;;;;;;;;48.75;41.50;;;;;29.73;34.50;99448.38;4997286;28;8842;-84
2023/06/21 07:26:45;;;;;;;;;50.75;41.50;;;;;29.96;34.56;99445.97;5018349;28;8882;-83
2023/06/21 07:29:14;;;;;;;;;51.75;43.50;;;;;30.00;34.97;99451.91;5011175;28;8862;-83
2023/06/21 07:31:43;;;;;;;;;48.75;41.25;;;;;30.34;33.62;99441.94;5010038;28;9001;-85
2023/06/21 07:34:13;;;;;;;;;46.25;38.50;;;;;30.65;33.13;99446.81;5027474;28;8866;-85
2023/06/21 07:36:41;;;;;;;;;45.00;38.50;;;;;30.88;32.81;99440.78;5027533;28;8870;-87
2023/06/21 07:39:11;;;;;;;;;46.50;38.75;;;;;31.10;32.85;99439.28;5043321;28;8862;-85
2023/06/21 07:41:40;;;;;;;;;45.75;39.00;;;;;31.21;32.48;99440.88;5011046;28;9600;-85
2023/06/21 07:44:10;;;;;;;;;46.00;39.25;;;;;31.28;32.36;99453.59;5010508;28;8941;-84
2023/06/21 07:46:39;;;;;;;;;47.25;39.50;;;;;31.44;32.56;99454.59;5007833;28;8854;-84
2023/06/21 07:49:08;;;;;;;;;45.75;39.50;;;;;31.58;31.97;99450.34;5009879;28;10016;-85
2023/06/21 07:51:37;;;;;;;;;45.50;38.00;;;;;31.66;32.11;99445.78;4993543;28;8973;-84
2023/06/21 07:54:06;;;;;;;;;46.00;39.50;;;;;31.80;31.93;99452.38;4976607;28;8846;-84
2023/06/21 07:56:35;;;;;;;;;43.75;37.25;;;;;31.78;31.50;99449.00;5011626;28;8925;-83
2023/06/21 07:59:04;;;;;;;;;45.25;38.50;;;;;31.25;32.25;99451.19;4992537;28;8895;-85
2023/06/21 08:01:35;;;;;;;;;47.25;39.75;;;;;30.59;32.90;99452.88;5045865;28;9029;-84
2023/06/21 08:04:06;;;;;;;;;47.50;40.25;;;;;30.39;33.24;99449.59;5029868;28;8922;-87
2023/06/21 08:06:35;;;;;;;;;46.50;39.50;;;;;30.90;32.34;99452.34;5012875;28;8894;-85
2023/06/21 08:09:04;;;;;;;;;42.50;35.75;;;;;31.09;32.34;99448.47;5028863;28;8868;-84
2023/06/21 08:11:33;;;;;;;;;46.50;39.75;;;;;31.41;31.82;99453.09;5030853;28;8845;-83
2023/06/21 08:14:02;;;;;;;;;42.50;37.00;;;;;31.48;31.78;99450.53;5013744;28;9645;-87
2023/06/21 08:16:32;;;;;;;;;44.25;37.50;;;;;31.68;30.53;99448.34;5031767;28;8840;-85
2023/06/21 08:19:04;;;;;;;;;45.50;37.75;;;;;31.88;29.99;99449.66;5015680;28;8879;-84
2023/06/21 08:21:33;;;;;;;;;43.75;37.25;;;;;31.92;29.16;99443.88;5037535;28;9586;-87
2023/06/21 08:24:05;;;;;;;;;42.75;37.00;;;;;32.05;28.75;99436.00;4999905;28;8945;-84
2023/06/21 08:26:34;;;;;;;;;39.25;33.50;;;;;31.90;28.54;99445.91;5037592;28;8852;-86
2023/06/21 08:29:04;;;;;;;;;39.25;34.50;;;;;31.98;28.37;99444.03;5033572;28;8852;-84
2023/06/21 08:31:33;;;;;;;;;35.00;31.25;;;;;32.11;27.18;99442.63;5013212;28;9002;-85
2023/06/21 08:34:04;;;;;;;;;40.25;35.25;;;;;32.17;27.26;99448.25;5012025;28;8813;-87
2023/06/21 08:36:32;;;;;;;;;38.75;34.25;;;;;32.15;27.40;99447.59;5030074;28;8963;-85
2023/06/21 08:39:01;;;;;;;;;35.50;32.00;;;;;32.18;27.51;99458.09;5030857;28;8829;-87
2023/06/21 08:41:30;;;;;;;;;35.50;31.75;;;;;32.29;26.62;99461.47;5031041;28;8864;-81
2023/06/21 08:43:59;;;;;;;;;34.00;31.00;;;;;32.30;26.15;99466.75;5029470;28;8844;-86
2023/06/21 08:46:28;;;;;;;;;33.00;30.25;;;;;32.49;25.99;99460.03;4995725;28;8959;-84
2023/06/21 08:49:00;;;;;;;;;25.00;25.00;;;;;32.47;25.32;99456.66;5030598;28;8836;-86
2023/06/21 08:51:32;;;;;;;;;30.75;29.75;;;;;32.53;25.30;99465.97;4996022;28;8874;-85
2023/06/21 08:54:08;;;;;;;;;36.50;32.50;;;;;32.65;25.86;99459.97;5012348;28;9642;-85
2023/06/21 08:56:46;;;;;;;;;41.25;35.75;;;;;32.77;25.85;99471.31;5029860;28;9108;-84
2023/06/21 08:59:23;;;;;;;;;37.25;34.00;;;;;32.87;26.24;99471.09;4996338;28;8852;-84
2023/06/21 09:02:00;;;;;;;;;36.50;33.25;;;;;32.97;26.50;99477.13;5032144;28;8889;-85
2023/06/21 09:04:39;;;;;;;;;32.75;31.00;;;;;32.98;26.37;99478.84;5058837;28;8892;-82
2023/06/21 09:07:12;;;;;;;;;38.50;33.75;;;;;32.95;26.88;99476.47;5041017;28;8942;-84
2023/06/21 09:09:45;;;;;;;;;41.25;34.75;;;;;33.02;26.49;99474.72;5013514;28;9464;-86
2023/06/21 09:12:17;;;;;;;;;38.50;33.75;;;;;33.18;26.47;99471.06;4997587;28;9028;-85
2023/06/21 09:14:47;;;;;;;;;37.67;33.33;;;;;33.21;26.59;99480.75;5037686;28;8860;-83
2023/06/21 09:17:16;;;;;;;;;42.25;37.00;;;;;33.18;26.62;99472.94;5042388;28;8860;-85
2023/06/21 09:19:46;;;;;;;;;40.75;35.25;;;;;33.27;26.04;99469.13;4996233;28;8967;-84
2023/06/21 09:22:16;;;;;;;;;35.50;31.75;;;;;33.39;26.17;99473.09;5030785;28;8990;-82
2023/06/21 09:24:45;;;;;;;;;40.50;35.50;;;;;33.53;25.78;99476.94;5030072;28;8844;-85
2023/06/21 09:27:15;;;;;;;;;38.50;34.50;;;;;33.60;26.01;99477.94;4990021;28;8859;-83
2023/06/21 09:29:44;;;;;;;;;38.25;33.00;;;;;33.68;25.96;99482.44;5007362;28;8859;-82
2023/06/21 09:32:13;;;;;;;;;46.50;39.75;;;;;33.55;26.54;99472.16;5007352;28;8867;-84
2023/06/21 09:34:43;;;;;;;;;56.00;47.00;;;;;32.10;30.55;99481.72;4990659;28;9620;-85
2023/06/21 09:37:31;;;;;;;;;55.33;46.67;;;;;31.90;31.05;99473.09;4989995;28;9605;-85
2023/06/21 09:40:00;;;;;;;;;57.00;47.00;;;;;32.16;30.45;99481.91;5007227;28;9240;-85
2023/06/21 09:42:29;;;;;;;;;51.33;43.00;;;;;32.36;30.26;99476.06;5007120;28;9368;-86
2023/06/21 09:44:58;;;;;;;;;47.50;39.50;;;;;32.51;29.65;99477.03;5007206;28;9184;-85
2023/06/21 09:47:31;;;;;;;;;36.50;33.25;;;;;32.62;29.36;99476.66;4977509;28;8919;-85
2023/06/21 09:50:00;;;;;;;;;40.00;35.50;;;;;32.65;29.29;99472.72;4975839;28;8922;-86
2023/06/21 09:52:30;;;;;;;;;43.00;37.00;;;;;32.58;29.30;99461.69;4982529;28;8981;-86
2023/06/21 09:55:00;;;;;;;;;43.25;36.50;;;;;32.55;29.17;99467.47;4941188;28;8847;-84
2023/06/21 09:57:30;;;;;;;;;39.50;34.50;;;;;32.65;28.62;99470.00;4968715;28;8955;-85
2023/06/21 10:00:00;;;;;;;;;43.75;36.50;;;;;32.68;28.60;99461.50;4969079;28;9654;-85
2023/06/21 10:02:30;;;;;;;;;40.50;35.00;;;;;32.60;28.61;99470.53;4967863;28;8904;-85
2023/06/21 10:05:00;;;;;;;;;43.75;37.25;;;;;32.76;28.12;99468.78;4930330;28;8874;-84
2023/06/21 10:07:30;;;;;;;;;45.50;38.50;;;;;32.77;28.59;99473.16;4958220;28;8881;-88
2023/06/21 10:10:06;;;;;;;;;42.50;36.75;;;;;32.90;28.47;99475.31;4997402;28;8866;-84
2023/06/21 10:12:35;;;;;;;;;44.00;37.00;;;;;32.74;28.27;99479.00;4996173;28;8862;-86
2023/06/21 10:15:06;;;;;;;;;44.00;37.75;;;;;32.79;28.45;99480.16;4972963;28;8878;-86
2023/06/21 10:17:36;;;;;;;;;44.50;37.00;;;;;32.72;28.45;99481.03;4962147;28;8890;-87
2023/06/21 10:20:06;;;;;;;;;41.00;35.50;;;;;32.78;28.49;99483.88;4999433;28;8941;-87
2023/06/21 10:22:39;;;;;;;;;41.25;36.00;;;;;32.88;28.62;99489.09;4998598;28;9689;-84
2023/06/21 10:25:10;;;;;;;;;44.00;37.00;;;;;32.86;28.17;99485.72;4998935;28;8938;-85
2023/06/21 10:27:40;;;;;;;;;47.50;40.00;;;;;32.93;27.69;99474.97;5032929;28;8860;-84
2023/06/21 10:30:10;;;;;;;;;44.50;36.75;;;;;32.88;28.36;99482.81;5032669;28;8856;-85
2023/06/21 10:32:41;;;;;;;;;42.50;36.50;;;;;32.84;28.47;99487.78;5030958;28;8860;-82
2023/06/21 10:35:13;;;;;;;;;44.50;38.25;;;;;32.87;28.27;99487.41;5014704;28;8871;-84
2023/06/21 10:37:58;;;;;;;;;44.00;37.25;;;;;33.17;27.80;99488.44;5015238;28;9074;-82
2023/06/21 10:40:29;;;;;;;;;34.25;32.00;;;;;33.19;27.36;99494.56;5014816;28;8868;-85
2023/06/21 10:42:59;;;;;;;;;41.25;36.00;;;;;33.26;27.66;99486.50;4992565;28;8888;-83
2023/06/21 10:45:30;;;;;;;;;46.75;39.00;;;;;33.44;27.73;99488.91;5007953;28;8978;-83
2023/06/21 10:48:01;;;;;;;;;46.50;38.00;;;;;33.58;27.83;99477.25;4959188;28;8868;-83
2023/06/21 10:50:31;;;;;;;;;40.75;35.75;;;;;33.73;27.70;99488.16;4994248;28;8944;-82
2023/06/21 10:53:03;;;;;;;;;42.75;36.75;;;;;33.73;26.19;99479.16;4986650;28;9015;-84
2023/06/21 10:55:32;;;;;;;;;45.50;38.25;;;;;32.39;27.62;99479.28;5002433;28;8868;-84
2023/06/21 10:58:03;;;;;;;;;40.50;35.00;;;;;32.56;27.60;99468.31;4965231;28;8864;-85
2023/06/21 11:00:32;;;;;;;;;44.50;38.00;;;;;32.92;27.58;99478.69;4976623;28;8891;-86
2023/06/21 11:03:01;;;;;;;;;41.75;35.75;;;;;33.15;27.63;99470.56;4999132;28;8899;-84
2023/06/21 11:05:31;;;;;;;;;38.50;33.75;;;;;33.26;26.81;99472.88;5001756;28;8845;-83
2023/06/21 11:08:04;;;;;;;;;41.00;35.25;;;;;33.41;26.29;99473.81;5010915;28;8880;-85
2023/06/21 11:10:39;;;;;;;;;41.25;35.75;;;;;33.60;26.89;99480.66;4994888;28;8851;-84
2023/06/21 11:13:08;;;;;;;;;42.50;36.25;;;;;33.66;26.66;99467.28;5011915;28;8867;-83
2023/06/21 11:15:40;;;;;;;;;40.50;35.25;;;;;33.77;26.04;99473.16;4989600;28;8841;-84
2023/06/21 11:18:10;;;;;;;;;38.00;34.00;;;;;33.95;25.69;99477.41;4995751;28;8880;-83
2023/06/21 11:20:47;;;;;;;;;38.00;33.75;;;;;34.21;25.30;99473.38;5016650;28;8861;-83
2023/06/21 11:23:19;;;;;;;;;39.75;35.00;;;;;34.04;24.76;99475.47;5006241;28;8865;-85
2023/06/21 11:25:51;;;;;;;;;42.25;35.50;;;;;34.14;25.40;99462.41;5006417;28;8864;-84
2023/06/21 11:28:29;;;;;;;;;32.75;30.75;;;;;33.90;24.30;99469.78;4953231;28;8863;-86
2023/06/21 11:31:12;;;;;;;;;36.00;33.00;;;;;33.97;24.90;99469.88;4969612;28;9696;-84
2023/06/21 11:33:55;;;;;;;;;35.50;32.50;;;;;34.22;24.86;99469.66;4969708;28;8872;-82
2023/06/21 11:36:28;;;;;;;;;34.50;31.75;;;;;34.36;24.32;99479.72;4985662;28;8882;-83
2023/06/21 11:39:25;;;;;;;;;36.00;32.50;;;;;34.73;24.06;99470.53;4985972;28;8863;-82
2023/06/21 11:42:01;;;;;;;;;36.00;32.75;;;;;34.75;23.21;99467.63;4985941;28;9009;-82
2023/06/21 11:44:33;;;;;;;;;32.25;29.75;;;;;35.06;23.39;99471.97;4969778;28;8846;-82
2023/06/21 11:47:19;;;;;;;;;30.25;28.75;;;;;35.33;22.76;99482.16;4969978;28;9676;-82
2023/06/21 11:49:56;;;;;;;;;30.00;29.00;;;;;35.66;22.18;99478.84;4988798;28;8851;-82